Floris, Iowa
Current Conditions -  °F | °C
As of 10:02 AM on Wednesday 26 Nov 2014 (Local Time) from KOTM Reporting Station
Light Snow Light Snow  
Wind Chill: 19°   Ceiling: 1700
Heat Index: 30°   Visibility: 1.7mi
Dew Point: 27°   Wind: 16mph
Humidity: 88%   Direction: 120°ESE
Pressure: 29.94"   Gusts: NA
Location:  40.87°N, 92.33°W
Report Text: KOTM 261602Z AUTO 12014KT 1 3/4SM -SN BR FEW009 OVC017 M01/M03 A2994 RMK AO2 P0001 T10111028
Loading
Personal Weather Stations






























Interactive Weather Map New forecast layout! Learn more

10-Day Weather Forecast

Advertisements
Track Severe Weather on mobile